Current Weather Conditions from Arkansas, Oklahoma, Missouri & Kansas

As well as selected U.S. cities associated with XNA Flights


KVBT - Bentonville Arkansas, Airport
Updated: Sat, Sep-Sat-2020 9:56pm
Clear
Clear
 Wind from SSE
Wind: SSE 9 mph , 15 km/h
Temperature: 66°F , 19°C
Dew Point: 63°F , 17°C
Humidity: 88%
Barometer: 29.87 inHg , 1011.5 hPa
Clouds: Clear
Visibility: 10 miles , 16 km
2020/09/27 02:56 KVBT 270256Z AUTO 16008KT 10SM CLR 19/17 A2987 RMK AO2 SLP110 T01890172 51006 TSNO
KROG - Rogers Arkansas, Airport
Updated: Sat, Sep-Sat-2020 9:58pm
Clear
Clear
 Wind from SSE
Wind: SSE 10 mph , 17 km/h
Temperature: 66°F , 19°C
Dew Point: 63°F , 17°C
Humidity: 88%
Barometer: 29.87 inHg , 1011.5 hPa
Clouds: Clear
Visibility: 10 miles , 16 km
2020/09/27 02:58 KROG 270258Z AUTO 15009KT 10SM CLR 19/17 A2987 RMK AO2 SLP102 T01940167 50006
KXNA - Northwest Arkansas Regional Airport
Updated: Sat, Sep-Sat-2020 9:53pm
Clear
Clear
 Wind from SSE
Wind: SSE 13 mph , 20 km/h
Temperature: 66°F , 19°C
Dew Point: 61°F , 16°C
Humidity: 83%
Barometer: 29.86 inHg , 1011.2 hPa
Clouds: Clear
Visibility: 10 miles , 16 km
2020/09/27 02:53 KXNA 270253Z 16011KT 10SM CLR 19/16 A2986 RMK AO2 SLP100 T01890161 51006
 
KSLG - Siloam Spring Arkansas, Airport
Updated: Sat, Sep-Sat-2020 9:56pm
Clear
Clear
 Wind from SSE
Wind: SSE 8 mph , 13 km/h
Temperature: 66°F , 19°C
Dew Point: 63°F , 17°C
Humidity: 88%
Barometer: 29.86 inHg , 1011.2 hPa
Clouds: Clear
Visibility: 10 miles , 16 km
2020/09/27 02:56 KSLG 270256Z AUTO 15007KT 10SM CLR 19/17 A2986 RMK AO2 SLP104 T01890172 53005 TSNO
KASG - Springdale, Arkansas, Airport
Updated: Sat, Sep-Sat-2020 8:48pm
Clear
Clear
 Wind from SSE
Wind: SSE 5 mph , 7 km/h
Temperature: 68°F , 20°C
Dew Point: 66°F , 19°C
Humidity: 94%
Barometer: 29.87 inHg , 1011.5 hPa
Clouds: Clear
Visibility: 10 miles , 16 km
2020/09/27 01:48 KASG 270148Z 15004KT 10SM CLR 20/19 A2987
KFYV - Fayetteville Arkansas, Airport
Updated: Sat, Sep-Sat-2020 9:53pm
Clear
Clear
 Wind from S
Wind: S 14 mph , 22 km/h, Gust: 20 mph , 31 km/h
Temperature: 66°F , 19°C
Dew Point: 63°F , 17°C
Humidity: 88%
Barometer: 29.86 inHg , 1011.2 hPa
Clouds: Clear
Visibility: 10 miles , 16 km
2020/09/27 02:53 KFYV 270253Z AUTO 17012G17KT 10SM CLR 19/17 A2986 RMK AO2 SLP101 T01940172 53004
 
KHRO - Harrison, Arkansas
Updated: Sat, Sep-Sat-2020 9:53pm
Clear
Clear
 Wind from SSE
Wind: SSE 12 mph , 19 km/h
Temperature: 64°F , 18°C
Dew Point: 61°F , 16°C
Humidity: 88%
Barometer: 29.87 inHg , 1011.5 hPa
Clouds: Clear
Visibility: 10 miles , 16 km
2020/09/27 02:53 KHRO 270253Z AUTO 15010KT 10SM CLR 18/16 A2987 RMK AO2 SLP105 T01780156 52002 $
KFLP - Flippin, Arkansas
Updated: Sat, Sep-Sat-2020 9:56pm
Clear
Clear
 Wind from S
Wind: S 7 mph , 11 km/h
Temperature: 66°F , 19°C
Dew Point: 61°F , 16°C
Humidity: 83%
Barometer: 29.88 inHg , 1011.9 hPa
Clouds: Clear
Visibility: 10 miles , 16 km
2020/09/27 02:56 KFLP 270256Z AUTO 17006KT 10SM CLR 19/16 A2988 RMK AO2 SLP112 T01940161 50004
KBPK - Mountain Home, Arkansas
Updated: Sat, Sep-Sat-2020 9:53pm
Clear
Clear
 Wind from SSW
Wind: SSW 6 mph , 9 km/h
Temperature: 64°F , 18°C
Dew Point: 59°F , 15°C
Humidity: 83%
Barometer: 29.88 inHg , 1011.9 hPa
Clouds: Clear
Visibility: 10 miles , 16 km
2020/09/27 02:53 KBPK 270253Z AUTO 20005KT 10SM CLR 18/15 A2988 RMK AO2 SLP112 T01780150 50003
 
KCCA - Clinton, Arkansas
Updated: Sat, Sep-Sat-2020 9:55pm
Mist, Clear
Mist, Clear
 Wind from calm
Wind: Calm
Temperature: 59°F , 15°C
Dew Point: 59°F , 15°C
Humidity: 100%
Barometer: 29.91 inHg , 1012.9 hPa
Summary: Mist
Clouds: Clear
Visibility: 2 miles , 3 km
2020/09/27 02:55 KCCA 270255Z AUTO 00000KT 2SM BR CLR 15/15 A2991 RMK AO2
KRUE - Russellville, Arkansas
Updated: Sat, Sep-Sat-2020 9:53pm
Clear
Clear
 Wind from varies
Wind: varies 3 mph , 6 km/h
Temperature: 64°F , 18°C
Dew Point: 61°F , 16°C
Humidity: 88%
Barometer: 29.88 inHg , 1011.9 hPa
Clouds: Clear
Visibility: 10 miles , 16 km
2020/09/27 02:53 KRUE 270253Z AUTO VRB03KT 10SM CLR 18/16 A2988 RMK AO2 SLP112 T01780161 51003
KBVX - Batesville, Arkansa
Updated: Sat, Sep-Sat-2020 9:56pm
Clear
Clear
 Wind from S
Wind: S 5 mph , 7 km/h
Temperature: 66°F , 19°C
Dew Point: 61°F , 16°C
Humidity: 83%
Barometer: 29.91 inHg , 1012.9 hPa
Clouds: Clear
Visibility: 10 miles , 16 km
2020/09/27 02:56 KBVX 270256Z AUTO 17004KT 10SM CLR 19/16 A2991 RMK AO2 SLP125 T01890161 50001
 
KBYH - Blytheville, Arkansas
Updated: Wed, Sep-Wed-2020 3:50pm
NOT Current
Light rain, Mist, Overcast
Light rain, Mist, Overcast
 Wind from NNE
Wind: NNE 5 mph , 7 km/h
Temperature: 63°F , 17°C
Dew Point: 59°F , 15°C
Humidity: 88%
Barometer: 30.05 inHg , 1017.6 hPa
Summary: Light rain, Mist
Clouds: Overcast
Visibility: 5 miles , 8 km
Cloud details: Few Clouds 800 ft
2700 ft
Overcast 5000 ft
2020/09/23 20:50 KBYH 232050Z 03004KT 5SM -RA BR FEW008 BN027 OVC050 17/15 A3005 RMK LAST
KM19 - Newport, Arkansas
Updated: Sat, Sep-Sat-2020 9:56pm
Clear
Clear
 Wind from S
Wind: S 6 mph , 9 km/h
Temperature: 63°F , 17°C
Dew Point: 61°F , 16°C
Humidity: 94%
Barometer: 29.91 inHg , 1012.9 hPa
Clouds: Clear
Visibility: 10 miles , 16 km
2020/09/27 02:56 KM19 270256Z AUTO 18005KT 10SM CLR 17/16 A2991 RMK AO2 SLP126 T01670161 50002
KSRC - Searcy, Arkansas
Updated: Sat, Sep-Sat-2020 9:56pm
Haze, Clear
Haze, Clear
 Wind from calm
Wind: Calm
Temperature: 61°F , 16°C
Barometer: 29.91 inHg , 1012.9 hPa
Summary: Haze
Clouds: Clear
Visibility: 4 miles , 6 km
2020/09/27 02:56 KSRC 270256Z AUTO 00000KT 4SM HZ CLR 16/ A2991 RMK AO2 SLP128 T0161 50002
 
KARG - Walnut Ridge, Arkansas
Updated: Sat, Sep-Sat-2020 9:56pm
Clear
Clear
 Wind from S
Wind: S 8 mph , 13 km/h
Temperature: 63°F , 17°C
Dew Point: 61°F , 16°C
Humidity: 94%
Barometer: 29.90 inHg , 1012.5 hPa
Clouds: Clear
Visibility: 10 miles , 16 km
2020/09/27 02:56 KARG 270256Z AUTO 17007KT 10SM CLR 17/16 A2990 RMK AO2 SLP125 T01720161 50003
KJBR - Jonesboro, Arkansas
Updated: Sat, Sep-Sat-2020 9:53pm
Clear
Clear
 Wind from S
Wind: S 6 mph , 9 km/h
Temperature: 64°F , 18°C
Dew Point: 61°F , 16°C
Humidity: 88%
Barometer: 29.91 inHg , 1012.9 hPa
Clouds: Clear
Visibility: 10 miles , 16 km
2020/09/27 02:53 KJBR 270253Z AUTO 18005KT 10SM CLR 18/16 A2991 RMK AO2 SLP126 T01830161 50003 TSNO $
K4M9 - Corning, Arkansas
Updated: Sat, Sep-Sat-2020 9:55pm

 Wind from SSW
Wind: SSW 7 mph , 11 km/h
Temperature: 64°F , 18°C
Dew Point: 64°F , 18°C
Humidity: 100%
Barometer: 29.91 inHg , 1012.9 hPa
2020/09/27 02:55 K4M9 270255Z AUTO 20006KT 18/18 A2991 RMK AO2 PWINO
 
KLRF - Little Rock Afb, Arkansas
Updated: Sat, Sep-Sat-2020 9:56pm
Clear
Clear
 Wind from calm
Wind: Calm
Temperature: 59°F , 15°C
Dew Point: 59°F , 15°C
Humidity: 100%
Barometer: 29.91 inHg , 1012.9 hPa
Clouds: Clear
Visibility: 10 miles , 16 km
2020/09/27 02:56 KLRF 270256Z AUTO 00000KT 10SM CLR 15/15 A2991 RMK AO2 SLP130 T01540148 55000 $
KLIT - Little Rock, Arkansas
Updated: Sat, Sep-Sat-2020 9:53pm
Clear
Clear
 Wind from calm
Wind: Calm
Temperature: 63°F , 17°C
Dew Point: 61°F , 16°C
Humidity: 94%
Barometer: 29.91 inHg , 1012.9 hPa
Clouds: Clear
Visibility: 10 miles , 16 km
2020/09/27 02:53 KLIT 270253Z 00000KT 10SM CLR 17/16 A2991 RMK AO2 SLP128 T01720161 56000
KSGT - Stuttgart, Arkansas
Updated: Sat, Sep-Sat-2020 9:56pm
Clear
Clear
 Wind from SE
Wind: SE 5 mph , 7 km/h
Temperature: 64°F , 18°C
Dew Point: 63°F , 17°C
Humidity: 94%
Barometer: 29.92 inHg , 1013.2 hPa
Clouds: Clear
Visibility: 10 miles , 16 km
2020/09/27 02:56 KSGT 270256Z AUTO 14004KT 10SM CLR 18/17 A2992 RMK AO2 SLP129 T01830167 57002
 
KAWM - West Memphis, Arkansas
Updated: Sat, Sep-Sat-2020 9:53pm
Clear
Clear
 Wind from SSE
Wind: SSE 3 mph , 6 km/h
Temperature: 66°F , 19°C
Dew Point: 63°F , 17°C
Humidity: 88%
Barometer: 29.91 inHg , 1012.9 hPa
Clouds: Clear
Visibility: 10 miles , 16 km
2020/09/27 02:53 KAWM 270253Z AUTO 15003KT 10SM CLR 19/17 A2991 RMK AO2 SLP124 T01890167 58003
KFSM - Fort Smith, Arkansas
Updated: Sat, Sep-Sat-2020 9:53pm
Clear
Clear
 Wind from calm
Wind: Calm
Temperature: 70°F , 21°C
Dew Point: 64°F , 18°C
Humidity: 83%
Barometer: 29.86 inHg , 1011.2 hPa
Clouds: Clear
Visibility: 10 miles , 16 km
2020/09/27 02:53 KFSM 270253Z 00000KT 10SM CLR 21/18 A2986 RMK AO2 SLP107 T02060178 53010
KMWT - Mount Ida, Arkansas
Updated: Sat, Sep-Sat-2020 9:53pm
Mist, Clear
Mist, Clear
 Wind from calm
Wind: Calm
Temperature: 63°F , 17°C
Dew Point: 61°F , 16°C
Humidity: 94%
Barometer: 29.88 inHg , 1011.9 hPa
Summary: Mist
Clouds: Clear
Visibility: 1 1/4 miles , 2 km
2020/09/27 02:53 KMWT 270253Z AUTO 00000KT 1 1/4SM BR CLR 17/16 A2988 RMK AO2 SLP114 T01670161 53002
 
KMEZ - Mena, Arkansas
Updated: Sat, Sep-Sat-2020 9:55pm
Overcast
Overcast
 Wind from calm
Wind: Calm
Temperature: 64°F , 18°C
Dew Point: 64°F , 18°C
Humidity: 100%
Barometer: 29.90 inHg , 1012.5 hPa
Clouds: Overcast
Visibility: 7 miles , 11 km
Cloud details: Overcast 1600 ft
2020/09/27 02:55 KMEZ 270255Z AUTO 00000KT 7SM OVC016 18/18 A2990 RMK AO2
KHOT - Hot Springs, Arkansas
Updated: Sat, Sep-Sat-2020 9:53pm
Clear
Clear
 Wind from E
Wind: E 5 mph , 7 km/h
Temperature: 64°F , 18°C
Dew Point: 63°F , 17°C
Humidity: 94%
Barometer: 29.91 inHg , 1012.9 hPa
Clouds: Clear
Visibility: 10 miles , 16 km
2020/09/27 02:53 KHOT 270253Z AUTO 08004KT 10SM CLR 18/17 A2991 RMK AO2 SLP122 T01780167 53002
KADF - Arkadelphia, Arkansas
Updated: Sat, Sep-Sat-2020 9:56pm
Clear
Clear
 Wind from calm
Wind: Calm
Temperature: 63°F , 17°C
Barometer: 29.90 inHg , 1012.5 hPa
Clouds: Clear
Visibility: 8 miles , 13 km
2020/09/27 02:56 KADF 270256Z AUTO 00000KT 8SM CLR 17/ A2990 RMK AO2 SLP124 T0172 50002
 
KSGT - Stuttgart, Arkansas
Updated: Sat, Sep-Sat-2020 9:56pm
Clear
Clear
 Wind from SE
Wind: SE 5 mph , 7 km/h
Temperature: 64°F , 18°C
Dew Point: 63°F , 17°C
Humidity: 94%
Barometer: 29.92 inHg , 1013.2 hPa
Clouds: Clear
Visibility: 10 miles , 16 km
2020/09/27 02:56 KSGT 270256Z AUTO 14004KT 10SM CLR 18/17 A2992 RMK AO2 SLP129 T01830167 57002
KPBF - Pine Bluff, Arkansas
Updated: Sat, Sep-Sat-2020 9:53pm
Mist, Clear
Mist, Clear
 Wind from calm
Wind: Calm
Temperature: 61°F , 16°C
Dew Point: 59°F , 15°C
Humidity: 94%
Barometer: 29.91 inHg , 1012.9 hPa
Summary: Mist
Clouds: Clear
Visibility: 3/4 mile , 1.2 km
2020/09/27 02:53 KPBF 270253Z AUTO 00000KT 3/4SM BR CLR 16/15 A2991 RMK AO2 SLP125 T01610150 58001
KSRC - Searcy, Arkansas
Updated: Sat, Sep-Sat-2020 9:56pm
Haze, Clear
Haze, Clear
 Wind from calm
Wind: Calm
Temperature: 61°F , 16°C
Barometer: 29.91 inHg , 1012.9 hPa
Summary: Haze
Clouds: Clear
Visibility: 4 miles , 6 km
2020/09/27 02:56 KSRC 270256Z AUTO 00000KT 4SM HZ CLR 16/ A2991 RMK AO2 SLP128 T0161 50002
 
KRUE - Russellville, Arkansas
Updated: Sat, Sep-Sat-2020 9:53pm
Clear
Clear
 Wind from varies
Wind: varies 3 mph , 6 km/h
Temperature: 64°F , 18°C
Dew Point: 61°F , 16°C
Humidity: 88%
Barometer: 29.88 inHg , 1011.9 hPa
Clouds: Clear
Visibility: 10 miles , 16 km
2020/09/27 02:53 KRUE 270253Z AUTO VRB03KT 10SM CLR 18/16 A2988 RMK AO2 SLP112 T01780161 51003
KCCA - Clinton, Arkansas
Updated: Sat, Sep-Sat-2020 9:55pm
Mist, Clear
Mist, Clear
 Wind from calm
Wind: Calm
Temperature: 59°F , 15°C
Dew Point: 59°F , 15°C
Humidity: 100%
Barometer: 29.91 inHg , 1012.9 hPa
Summary: Mist
Clouds: Clear
Visibility: 2 miles , 3 km
2020/09/27 02:55 KCCA 270255Z AUTO 00000KT 2SM BR CLR 15/15 A2991 RMK AO2
KLLQ - Monticello, Arkansas
Updated: Sat, Sep-Sat-2020 9:53pm
Clear
Clear
 Wind from SE
Wind: SE 3 mph , 6 km/h
Temperature: 66°F , 19°C
Dew Point: 64°F , 18°C
Humidity: 94%
Barometer: 29.91 inHg , 1012.9 hPa
Clouds: Clear
Visibility: 10 miles , 16 km
2020/09/27 02:53 KLLQ 270253Z AUTO 13003KT 10SM CLR 19/18 A2991 RMK AO2 SLP126 T01940183 58000
 
KCDH - Camden, Arkansas
Updated: Sat, Sep-Sat-2020 9:55pm
Fog, Overcast
Fog, Overcast
 Wind from calm
Wind: Calm
Temperature: 64°F , 18°C
Dew Point: 64°F , 18°C
Humidity: 100%
Barometer: 29.89 inHg , 1012.2 hPa
Summary: Fog
Clouds: Overcast
Visibility: 1/4 mile , 0.4 km
Cloud details: Overcast 200 ft
2020/09/27 02:55 KCDH 270255Z AUTO 00000KT 1/4SM FG VV002 18/18 A2989 RMK AO2
KM19 - Newport, Arkansas
Updated: Sat, Sep-Sat-2020 9:56pm
Clear
Clear
 Wind from S
Wind: S 6 mph , 9 km/h
Temperature: 63°F , 17°C
Dew Point: 61°F , 16°C
Humidity: 94%
Barometer: 29.91 inHg , 1012.9 hPa
Clouds: Clear
Visibility: 10 miles , 16 km
2020/09/27 02:56 KM19 270256Z AUTO 18005KT 10SM CLR 17/16 A2991 RMK AO2 SLP126 T01670161 50002
KDEQ - De Queen, Arkansas
Updated: Sat, Sep-Sat-2020 9:53pm
Mist, Few clouds
Mist, Few clouds
 Wind from E
Wind: E 3 mph , 6 km/h
Temperature: 63°F , 17°C
Dew Point: 63°F , 17°C
Humidity: 100%
Barometer: 29.87 inHg , 1011.5 hPa
Summary: Mist
Clouds: Few Clouds
Visibility: 5 miles , 8 km
Cloud details: Few Clouds 2400 ft
2020/09/27 02:53 KDEQ 270253Z AUTO 09003KT 5SM BR FEW024 17/17 A2987 RMK AO1 SLP110 T01720172 58002
 
KTXK - Texarkana, Arkansas
Updated: Sat, Sep-Sat-2020 9:53pm
Clear
Clear
 Wind from ESE
Wind: ESE 5 mph , 7 km/h
Temperature: 66°F , 19°C
Dew Point: 63°F , 17°C
Humidity: 88%
Barometer: 29.88 inHg , 1011.9 hPa
Clouds: Clear
Visibility: 10 miles , 16 km
2020/09/27 02:53 KTXK 270253Z AUTO 12004KT 10SM CLR 19/17 A2988 RMK AO2 SLP117 T01890172 56001
KELD - El Dorado, Arkansas
Updated: Sat, Sep-Sat-2020 9:53pm
Mist, Clear
Mist, Clear
 Wind from calm
Wind: Calm
Temperature: 63°F , 17°C
Dew Point: 63°F , 17°C
Humidity: 100%
Barometer: 29.90 inHg , 1012.5 hPa
Summary: Mist
Clouds: Clear
Visibility: 6 miles , 10 km
2020/09/27 02:53 KELD 270253Z AUTO 00000KT 6SM BR CLR 17/17 A2990 RMK AO2 SLP123 T01720172 58002
KCSM - Clinton, Oklahoma
Updated: Sat, Sep-Sat-2020 9:53pm
Clear
Clear
 Wind from S
Wind: S 17 mph , 28 km/h, Gust: 24 mph , 39 km/h
Temperature: 75°F , 24°C
Dew Point: 63°F , 17°C
Humidity: 65%
Barometer: 29.73 inHg , 1006.8 hPa
Clouds: Clear
Visibility: 10 miles , 16 km
2020/09/27 02:53 KCSM 270253Z AUTO 17015G21KT 10SM CLR 24/17 A2973 RMK AO2 SLP047 T02440167 50003
 
KHBR - Hobart, Oklahoma
Updated: Sat, Sep-Sat-2020 9:53pm
Clear
Clear
 Wind from S
Wind: S 20 mph , 31 km/h, Gust: 26 mph , 43 km/h
Temperature: 79°F , 26°C
Dew Point: 63°F , 17°C
Humidity: 58%
Barometer: 29.73 inHg , 1006.8 hPa
Clouds: Clear
Visibility: 10 miles , 16 km
2020/09/27 02:53 KHBR 270253Z AUTO 18017G23KT 10SM CLR 26/17 A2973 RMK AO2 SLP049 T02610172 55000
KLTS - Altus Afb, Oklahoma
Updated: Sat, Sep-Sat-2020 9:56pm
Clear
Clear
 Wind from SSE
Wind: SSE 16 mph , 26 km/h
Temperature: 77°F , 25°C
Barometer: 29.73 inHg , 1006.8 hPa
Clouds: Clear
Visibility: 10 miles , 16 km
2020/09/27 02:56 KLTS 270256Z AUTO 16014KT 10SM CLR 25/ A2973 RMK AO2 SLP054 53003 $
KFSI - Fort Sill, Oklahoma
Updated: Sat, Sep-Sat-2020 9:56pm
Clear
Clear
 Wind from SSE
Wind: SSE 13 mph , 20 km/h
Temperature: 75°F , 24°C
Dew Point: 64°F , 18°C
Humidity: 69%
Barometer: 29.74 inHg , 1007.1 hPa
Clouds: Clear
Visibility: 10 miles , 16 km
2020/09/27 02:56 KFSI 270256Z AUTO 16011KT 10SM CLR 24/18 A2974 RMK AO2 SLP063 T02390181 52005 $
 
KGAG - Gage, Oklahoma
Updated: Sat, Sep-Sat-2020 9:53pm
Clear
Clear
 Wind from S
Wind: S 24 mph , 39 km/h, Gust: 32 mph , 52 km/h
Temperature: 79°F , 26°C
Dew Point: 59°F , 15°C
Humidity: 51%
Barometer: 29.69 inHg , 1005.4 hPa
Clouds: Clear
Visibility: 10 miles , 16 km
2020/09/27 02:53 KGAG 270253Z AUTO 18021G28KT 10SM CLR 26/15 A2969 RMK AO2 PK WND 18029/0242 SLP025 T02610150 53005 $
KWWR - Woodward, Oklahoma
Updated: Sat, Sep-Sat-2020 9:55pm
Clear
Clear
 Wind from S
Wind: S 22 mph , 35 km/h, Gust: 29 mph , 46 km/h
Temperature: 79°F , 26°C
Dew Point: 57°F , 14°C
Humidity: 48%
Barometer: 29.72 inHg , 1006.4 hPa
Clouds: Clear
Visibility: 10 miles , 16 km
2020/09/27 02:55 KWWR 270255Z AUTO 17019G25KT 10SM CLR 26/14 A2972 RMK AO2
KLAW - Lawton, Oklahoma
Updated: Sat, Sep-Sat-2020 9:53pm
Clear
Clear
 Wind from SSE
Wind: SSE 12 mph , 19 km/h
Temperature: 77°F , 25°C
Dew Point: 63°F , 17°C
Humidity: 61%
Barometer: 29.75 inHg , 1007.5 hPa
Clouds: Clear
Visibility: 10 miles , 16 km
2020/09/27 02:53 KLAW 270253Z AUTO 15010KT 10SM CLR 25/17 A2975 RMK AO2 SLP061 T02500172 51005 $
 
KOKC - Oklahoma City, Oklahoma
Updated: Sat, Sep-Sat-2020 9:52pm
Few Clouds
Few Clouds
 Wind from S
Wind: S 15 mph , 24 km/h
Temperature: 73°F , 23°C
Dew Point: 63°F , 17°C
Humidity: 69%
Barometer: 29.75 inHg , 1007.5 hPa
Clouds: Few Clouds
Visibility: 10 miles , 16 km
Cloud details: Few Clouds 25000 ft
2020/09/27 02:52 KOKC 270252Z 17013KT 10SM FEW250 23/17 A2975 RMK AO2 SLP063 T02330172 51004
KEND - Enid/Vance Afb, Oklahoma
Updated: Sat, Sep-Sat-2020 9:56pm
Clear
Clear
 Wind from SSE
Wind: SSE 15 mph , 24 km/h
Temperature: 77°F , 25°C
Dew Point: 68°F , 20°C
Humidity: 74%
Barometer: 29.72 inHg , 1006.4 hPa
Clouds: Clear
Visibility: 10 miles , 16 km
2020/09/27 02:56 KEND 270256Z AUTO 15013KT 10SM CLR 25/20 A2972 RMK AO2 SLP053 T02480198 52008 $
KFDR - Frederick/Altus, Oklahoma
Updated: Sat, Sep-Sat-2020 9:53pm
Clear
Clear
 Wind from SE
Wind: SE 14 mph , 22 km/h
Temperature: 77°F , 25°C
Dew Point: 64°F , 18°C
Humidity: 65%
Barometer: 29.71 inHg , 1006.1 hPa
Clouds: Clear
Visibility: 10 miles , 16 km
2020/09/27 02:53 KFDR 270253Z AUTO 14012KT 10SM CLR 25/18 A2971 RMK AO2 SLP042 T02500178 51002
 
KOUN - Norman, Oklahoma
Updated: Sat, Sep-Sat-2020 9:55pm
Clear
Clear
 Wind from SSE
Wind: SSE 14 mph , 22 km/h
Temperature: 75°F , 24°C
Dew Point: 63°F , 17°C
Humidity: 65%
Barometer: 29.76 inHg , 1007.8 hPa
Clouds: Clear
Visibility: 10 miles , 16 km
2020/09/27 02:55 KOUN 270255Z AUTO 15012KT 10SM CLR 24/17 A2976 RMK AO2 T02370171
KTIK - Tinker Afb, Oklahoma
Updated: Sat, Sep-Sat-2020 9:56pm
Clear
Clear
 Wind from S
Wind: S 16 mph , 26 km/h
Temperature: 73°F , 23°C
Dew Point: 64°F , 18°C
Humidity: 74%
Barometer: 29.76 inHg , 1007.8 hPa
Clouds: Clear
Visibility: 10 miles , 16 km
2020/09/27 02:56 KTIK 270256Z AUTO 17014KT 10SM CLR 23/18 A2976 RMK AO2 SLP074 T02330175 51004 $
KGOK - Guthrie, Oklahoma
Updated: Sat, Sep-Sat-2020 9:53pm
Clear
Clear
 Wind from SSE
Wind: SSE 13 mph , 20 km/h
Temperature: 75°F , 24°C
Dew Point: 64°F , 18°C
Humidity: 69%
Barometer: 29.74 inHg , 1007.1 hPa
Clouds: Clear
Visibility: 10 miles , 16 km
2020/09/27 02:53 KGOK 270253Z AUTO 16011KT 10SM CLR 24/18 A2974 RMK AO2 SLP062 T02440178 53005
 
KSNL - Shawnee, Oklahoma
Updated: Sat, Sep-Sat-2020 9:35pm
Clear
Clear
 Wind from S
Wind: S 12 mph , 19 km/h
Temperature: 73°F , 23°C
Dew Point: 66°F , 19°C
Humidity: 78%
Barometer: 29.78 inHg , 1008.5 hPa
Clouds: Clear
Visibility: 10 miles , 16 km
2020/09/27 02:35 KSNL 270235Z AUTO 17010KT 10SM CLR 23/19 A2978 RMK AO2 T02270188
KCQB - Chandler, Oklahoma
Updated: Sat, Sep-Sat-2020 9:35pm
Clear
Clear
 Wind from SSE
Wind: SSE 13 mph , 20 km/h, Gust: 18 mph , 30 km/h
Temperature: 73°F , 23°C
Dew Point: 68°F , 20°C
Humidity: 83%
Barometer: 29.78 inHg , 1008.5 hPa
Clouds: Clear
Visibility: 10 miles , 16 km
2020/09/27 02:35 KCQB 270235Z AUTO 15011G16KT 10SM CLR 23/20 A2978 RMK AO2 T02270200
KPVJ - Pauls Valley, Oklahoma
Updated: Sat, Sep-Sat-2020 9:55pm
Clear
Clear
 Wind from SSE
Wind: SSE 7 mph , 11 km/h
Temperature: 73°F , 23°C
Dew Point: 68°F , 20°C
Humidity: 83%
Barometer: 29.78 inHg , 1008.5 hPa
Clouds: Clear
Visibility: 10 miles , 16 km
2020/09/27 02:55 KPVJ 270255Z AUTO 15006KT 10SM CLR 23/20 A2978 RMK AO2 T02250200
 
KEND - Enid/Vance Afb, Oklahoma
Updated: Sat, Sep-Sat-2020 9:56pm
Clear
Clear
 Wind from SSE
Wind: SSE 15 mph , 24 km/h
Temperature: 77°F , 25°C
Dew Point: 68°F , 20°C
Humidity: 74%
Barometer: 29.72 inHg , 1006.4 hPa
Clouds: Clear
Visibility: 10 miles , 16 km
2020/09/27 02:56 KEND 270256Z AUTO 15013KT 10SM CLR 25/20 A2972 RMK AO2 SLP053 T02480198 52008 $
KSWO - Stillwater, Oklahoma
Updated: Sat, Sep-Sat-2020 9:53pm
Clear
Clear
 Wind from S
Wind: S 17 mph , 28 km/h
Temperature: 77°F , 25°C
Dew Point: 64°F , 18°C
Humidity: 65%
Barometer: 29.74 inHg , 1007.1 hPa
Clouds: Clear
Visibility: 10 miles , 16 km
2020/09/27 02:53 KSWO 270253Z AUTO 17015KT 10SM CLR 25/18 A2974 RMK AO2 SLP057 T02500183 50003
KFSI - Fort Sill, Oklahoma
Updated: Sat, Sep-Sat-2020 9:56pm
Clear
Clear
 Wind from SSE
Wind: SSE 13 mph , 20 km/h
Temperature: 75°F , 24°C
Dew Point: 64°F , 18°C
Humidity: 69%
Barometer: 29.74 inHg , 1007.1 hPa
Clouds: Clear
Visibility: 10 miles , 16 km
2020/09/27 02:56 KFSI 270256Z AUTO 16011KT 10SM CLR 24/18 A2974 RMK AO2 SLP063 T02390181 52005 $
 
KDUC - Duncan, Oklahoma
Updated: Sat, Sep-Sat-2020 9:55pm
Clear
Clear
 Wind from SSE
Wind: SSE 12 mph , 19 km/h
Temperature: 75°F , 24°C
Dew Point: 64°F , 18°C
Humidity: 69%
Barometer: 29.78 inHg , 1008.5 hPa
Clouds: Clear
Visibility: 10 miles , 16 km
2020/09/27 02:55 KDUC 270255Z AUTO 15010KT 10SM CLR 24/18 A2978 RMK AO2 T02410179
KOKM - Okmulgee, Oklahoma
Updated: Sat, Sep-Sat-2020 9:55pm
Overcast
Overcast
 Wind from SSE
Wind: SSE 13 mph , 20 km/h
Temperature: 70°F , 21°C
Dew Point: 70°F , 21°C
Humidity: 100%
Barometer: 29.80 inHg , 1009.1 hPa
Clouds: Overcast
Visibility: 10 miles , 16 km
Cloud details: Overcast 1000 ft
2020/09/27 02:55 KOKM 270255Z AUTO 15011KT 10SM OVC010 21/21 A2980 RMK AO2 T02050205
KMLC - Mcalester, Oklahoma
Updated: Sat, Sep-Sat-2020 9:53pm
Mostly cloudy
Mostly cloudy
 Wind from SSE
Wind: SSE 8 mph , 13 km/h
Temperature: 70°F , 21°C
Dew Point: 64°F , 18°C
Humidity: 83%
Barometer: 29.83 inHg , 1010.2 hPa
Clouds: Mostly cloudy
Visibility: 10 miles , 16 km
Cloud details: Partly cloudy 7000 ft
Mostly cloudy 9000 ft
2020/09/27 02:53 KMLC 270253Z AUTO 15007KT 120V190 10SM SCT070 BKN090 21/18 A2983 RMK AO2 SLP095 T02060183 53003
 
KMKO - Muskogee, Oklahoma
Updated: Sat, Sep-Sat-2020 9:53pm
Clear
Clear
 Wind from SSE
Wind: SSE 9 mph , 15 km/h
Temperature: 66°F , 19°C
Dew Point: 64°F , 18°C
Humidity: 94%
Barometer: 29.83 inHg , 1010.2 hPa
Clouds: Clear
Visibility: 9 miles , 14 km
2020/09/27 02:53 KMKO 270253Z AUTO 15008KT 9SM CLR 19/18 A2983 RMK AO2 SLP097 T01940183 53011
KRVS - Tulsa, Oklahoma
Updated: Sat, Sep-Sat-2020 9:53pm
Clear
Clear
 Wind from S
Wind: S 9 mph , 15 km/h
Temperature: 73°F , 23°C
Dew Point: 66°F , 19°C
Humidity: 78%
Barometer: 29.79 inHg , 1008.8 hPa
Clouds: Clear
Visibility: 10 miles , 16 km
2020/09/27 02:53 KRVS 270253Z 17008KT 10SM CLR 23/19 A2979 RMK AO2 SLP090 LAST T02280189 51011
KGZL - Stigler, Oklahoma
Updated: Sat, Sep-Sat-2020 9:55pm

 Wind from SE
Wind: SE 5 mph , 7 km/h
Temperature: 64°F , 18°C
Dew Point: 63°F , 17°C
Humidity: 94%
Barometer: 29.84 inHg , 1010.5 hPa
Visibility: 10 miles , 16 km
2020/09/27 02:55 KGZL 270255Z AUTO 14004KT 10SM 18/17 A2984 RMK AO2
 
KADH - Ada, Oklahoma
Updated: Sat, Sep-Sat-2020 9:55pm
Partly cloudy
Partly cloudy
 Wind from SSE
Wind: SSE 12 mph , 19 km/h
Temperature: 70°F , 21°C
Dew Point: 68°F , 20°C
Humidity: 94%
Barometer: 29.82 inHg , 1009.8 hPa
Clouds: Partly cloudy
Visibility: 10 miles , 16 km
Cloud details: Partly cloudy 700 ft
2020/09/27 02:55 KADH 270255Z AUTO 15010KT 10SM SCT007 21/20 A2982 RMK AO2
KAQR - Atoka, Oklahoma
Updated: Sat, Sep-Sat-2020 9:55pm

 
2020/09/27 02:55 KAQR 270255Z AUTO RMK AO2 6//// PWINO PNO TSNO
KJSV - Sallisaw, Oklahoma
Updated: Sat, Sep-Sat-2020 9:55pm
Clear
Clear
 Wind from SSE
Wind: SSE 5 mph , 7 km/h
Temperature: 68°F , 20°C
Dew Point: 63°F , 17°C
Humidity: 83%
Barometer: 29.85 inHg , 1010.8 hPa
Clouds: Clear
Visibility: 10 miles , 16 km
2020/09/27 02:55 KJSV 270255Z AUTO 15004KT 10SM CLR 20/17 A2985 RMK AO2
 
KTQH - Tahlequah, Oklahoma
Updated: Sat, Sep-Sat-2020 9:55pm
Clear
Clear
 Wind from SSE
Wind: SSE 3 mph , 6 km/h
Temperature: 66°F , 19°C
Dew Point: 64°F , 18°C
Humidity: 94%
Barometer: 29.85 inHg , 1010.8 hPa
Clouds: Clear
Visibility: 10 miles , 16 km
2020/09/27 02:55 KTQH 270255Z AUTO 16003KT 10SM CLR 19/18 A2985 RMK AO2
KGCM - Claremore, Oklahoma
Updated: Sat, Sep-Sat-2020 9:55pm
Clear
Clear
 Wind from S
Wind: S 8 mph , 13 km/h
Temperature: 68°F , 20°C
Dew Point: 59°F , 15°C
Humidity: 73%
Barometer: 29.81 inHg , 1009.5 hPa
Clouds: Clear
Visibility: 10 miles , 16 km
2020/09/27 02:55 KGCM 270255Z AUTO 18007KT 10SM CLR 20/15 A2981 RMK AO2
KRKR - Poteau, Oklahoma
Updated: Sat, Sep-Sat-2020 9:55pm
Clear
Clear
 
Temperature: 66°F , 19°C
Dew Point: 61°F , 16°C
Humidity: 83%
Barometer: 29.85 inHg , 1010.8 hPa
Clouds: Clear
Visibility: 10 miles , 16 km
2020/09/27 02:55 KRKR 270255Z AUTO 10SM CLR 19/16 A2985 RMK AO2
 
KGMJ - Grove, Oklahoma
Updated: Sat, Sep-Sat-2020 9:55pm
Clear
Clear
 Wind from SSE
Wind: SSE 7 mph , 11 km/h
Temperature: 70°F , 21°C
Dew Point: 63°F , 17°C
Humidity: 78%
Barometer: 29.83 inHg , 1010.2 hPa
Clouds: Clear
Visibility: 10 miles , 16 km
2020/09/27 02:55 KGMJ 270255Z AUTO 15006KT 10SM CLR 21/17 A2983 RMK AO2
K4O4 - Idabel, Oklahoma
Updated: Sat, Sep-Sat-2020 9:55pm

 Wind from E
Wind: E 6 mph , 9 km/h
Temperature: 63°F , 17°C
Dew Point: 61°F , 16°C
Humidity: 94%
Barometer: 29.85 inHg , 1010.8 hPa
Visibility: 5 miles , 8 km
2020/09/27 02:55 K4O4 270255Z AUTO 09005KT 5SM 17/16 A2985 RMK AO2
KHHW - Hugo, Oklahoma
Updated: Sat, Sep-Sat-2020 9:55pm
Mist, Clear
Mist, Clear
 Wind from ESE
Wind: ESE 6 mph , 9 km/h
Temperature: 64°F , 18°C
Dew Point: 64°F , 18°C
Humidity: 100%
Barometer: 29.85 inHg , 1010.8 hPa
Summary: Mist
Clouds: Clear
Visibility: 5 miles , 8 km
2020/09/27 02:55 KHHW 270255Z AUTO 11005KT 5SM BR CLR 18/18 A2985 RMK AO2
 
KDUA - Durant, Oklahoma
Updated: Sat, Sep-Sat-2020 9:55pm
Clear
Clear
 Wind from SSE
Wind: SSE 8 mph , 13 km/h
Temperature: 72°F , 22°C
Dew Point: 70°F , 21°C
Humidity: 94%
Barometer: 29.83 inHg , 1010.2 hPa
Clouds: Clear
Visibility: 10 miles , 16 km
2020/09/27 02:55 KDUA 270255Z AUTO 15007KT 10SM CLR 22/21 A2983 RMK AO2
KSTJ - St. Joseph, Missouri
Updated: Sat, Sep-Sat-2020 9:53pm
Clear
Clear
 Wind from SSW
Wind: SSW 8 mph , 13 km/h
Temperature: 75°F , 24°C
Dew Point: 63°F , 17°C
Humidity: 65%
Barometer: 29.69 inHg , 1005.4 hPa
Clouds: Clear
Visibility: 10 miles , 16 km
2020/09/27 02:53 KSTJ 270253Z AUTO 20007KT 10SM CLR 24/17 A2969 RMK AO2 SLP047 T02440172 51024
KMCI - Kansas City/Intl, Missouri
Updated: Sat, Sep-Sat-2020 9:53pm
Mostly cloudy
Mostly cloudy
 Wind from SSW
Wind: SSW 13 mph , 20 km/h
Temperature: 77°F , 25°C
Dew Point: 64°F , 18°C
Humidity: 65%
Barometer: 29.72 inHg , 1006.4 hPa
Clouds: Mostly cloudy
Visibility: 10 miles , 16 km
Cloud details: Mostly cloudy 20000 ft
2020/09/27 02:53 KMCI 270253Z 21011KT 10SM BKN200 25/18 A2972 RMK AO2 SLP055 T02500178 53013
 
KMKC - Kansas City/Dntn, Missouri
Updated: Sat, Sep-Sat-2020 9:54pm
Clear
Clear
 Wind from SSW
Wind: SSW 15 mph , 24 km/h
Temperature: 77°F , 25°C
Dew Point: 63°F , 17°C
Humidity: 61%
Barometer: 29.71 inHg , 1006.1 hPa
Clouds: Clear
Visibility: 10 miles , 16 km
2020/09/27 02:54 KMKC 270254Z 20013KT 10SM CLR 25/17 A2971 RMK AO2 SLP054 T02500172 53013
KCDJ - Chillicothe, Missouri
Updated: Sat, Sep-Sat-2020 9:52pm

 Wind from SSW
Wind: SSW 8 mph , 13 km/h
Temperature: 77°F , 25°C
Dew Point: 63°F , 17°C
Humidity: 61%
Barometer: 29.72 inHg , 1006.4 hPa
2020/09/27 02:52 KCDJ 270252Z AUTO 20007KT 25/17 A2972 RMK AO1 SLP052 T02500167 53015
KIRK - Kirksville, Missouri
Updated: Sat, Sep-Sat-2020 9:55pm
Clear
Clear
 Wind from SW
Wind: SW 13 mph , 20 km/h, Gust: 22 mph , 35 km/h
Temperature: 75°F , 24°C
Dew Point: 57°F , 14°C
Humidity: 54%
Barometer: 29.73 inHg , 1006.8 hPa
Clouds: Clear
Visibility: 10 miles , 16 km
2020/09/27 02:55 KIRK 270255Z AUTO 22011G19KT 10SM CLR 24/14 A2973 RMK AO2 SLP063 T02440144 53013
 
KSZL - Whiteman Afb, Missouri
Updated: Sat, Sep-Sat-2020 9:56pm
Clear
Clear
 Wind from S
Wind: S 12 mph , 19 km/h
Temperature: 68°F , 20°C
Barometer: 29.71 inHg , 1006.1 hPa
Clouds: Clear
Visibility: 10 miles , 16 km
2020/09/27 02:56 KSZL 270256Z AUTO 19010KT 10SM CLR 20/ A2971 RMK AO2 SLP058 51013 $
KDMO - Sedalia, Missouri
Updated: Sat, Sep-Sat-2020 9:53pm
Clear
Clear
 Wind from S
Wind: S 12 mph , 19 km/h
Temperature: 72°F , 22°C
Dew Point: 57°F , 14°C
Humidity: 61%
Barometer: 29.78 inHg , 1008.5 hPa
Clouds: Clear
Visibility: 10 miles , 16 km
2020/09/27 02:53 KDMO 270253Z AUTO 19010KT 10SM CLR 22/14 A2978 RMK AO2 SLP077 60000 T02170144 53012
KGLY - Clinton, Missouri
Updated: Sat, Sep-Sat-2020 9:55pm
Clear
Clear
 Wind from SSW
Wind: SSW 6 mph , 9 km/h
Temperature: 75°F , 24°C
Dew Point: 61°F , 16°C
Humidity: 61%
Barometer: 29.77 inHg , 1008.1 hPa
Clouds: Clear
Visibility: 10 miles , 16 km
2020/09/27 02:55 KGLY 270255Z AUTO 20005KT 10SM CLR 24/16 A2977 RMK AO2
 
KCOU - Columbia, Missouri
Updated: Sat, Sep-Sat-2020 9:54pm
Clear
Clear
 Wind from S
Wind: S 14 mph , 22 km/h
Temperature: 72°F , 22°C
Dew Point: 59°F , 15°C
Humidity: 65%
Barometer: 29.78 inHg , 1008.5 hPa
Clouds: Clear
Visibility: 10 miles , 16 km
2020/09/27 02:54 KCOU 270254Z AUTO 18012KT 10SM CLR 22/15 A2978 RMK AO2 SLP076 T02170150 51010
KJEF - Jefferson City, Missouri
Updated: Sat, Sep-Sat-2020 9:53pm
Clear
Clear
 Wind from SSE
Wind: SSE 7 mph , 11 km/h
Temperature: 73°F , 23°C
Dew Point: 57°F , 14°C
Humidity: 57%
Barometer: 29.78 inHg , 1008.5 hPa
Clouds: Clear
Visibility: 10 miles , 16 km
2020/09/27 02:53 KJEF 270253Z AUTO 16006KT 10SM CLR 23/14 A2978 RMK AO2 SLP071 T02330144 53012
KVIH - Vichy/Rolla, Missouri
Updated: Sat, Sep-Sat-2020 9:53pm
Clear
Clear
 Wind from S
Wind: S 15 mph , 24 km/h
Temperature: 70°F , 21°C
Dew Point: 61°F , 16°C
Humidity: 73%
Barometer: 29.84 inHg , 1010.5 hPa
Clouds: Clear
Visibility: 10 miles , 16 km
2020/09/27 02:53 KVIH 270253Z AUTO 18013KT 10SM CLR 21/16 A2984 RMK AO2 SLP095 T02060161 53008
 
KTBN - Fort Leonard Wood, Missouri
Updated: Sat, Sep-Sat-2020 9:56pm
Clear
Clear
 Wind from SSE
Wind: SSE 15 mph , 24 km/h
Temperature: 68°F , 20°C
Dew Point: 59°F , 15°C
Humidity: 73%
Barometer: 29.83 inHg , 1010.2 hPa
Clouds: Clear
Visibility: 10 miles , 16 km
2020/09/27 02:56 KTBN 270256Z AUTO 16013KT 10SM CLR 20/15 A2983 RMK AO2 SLP096 T02020150 52007
KJLN - Joplin, Missouri
Updated: Sat, Sep-Sat-2020 9:53pm
Light rain, Clear
Light rain, Clear
 Wind from S
Wind: S 15 mph , 24 km/h
Temperature: 72°F , 22°C
Dew Point: 63°F , 17°C
Humidity: 73%
Barometer: 29.79 inHg , 1008.8 hPa
Summary: Light rain
Clouds: Clear
Visibility: 10 miles , 16 km
2020/09/27 02:53 KJLN 270253Z AUTO 17013KT 10SM -RA CLR 22/17 A2979 RMK AO2 SLP079 P0000 60000 T02170167 51005
KHFJ - Monett, Missouri
Updated: Sat, Sep-Sat-2020 9:55pm
Clear
Clear
 Wind from SSE
Wind: SSE 9 mph , 15 km/h
Temperature: 68°F , 20°C
Dew Point: 59°F , 15°C
Humidity: 73%
Barometer: 29.83 inHg , 1010.2 hPa
Clouds: Clear
Visibility: 10 miles , 16 km
2020/09/27 02:55 KHFJ 270255Z AUTO 16008KT 10SM CLR 20/15 A2983 RMK AO2
 
KSGF - Springfield, Missouri
Updated: Sat, Sep-Sat-2020 9:52pm
Clear
Clear
 Wind from S
Wind: S 13 mph , 20 km/h
Temperature: 70°F , 21°C
Dew Point: 61°F , 16°C
Humidity: 73%
Barometer: 29.83 inHg , 1010.2 hPa
Clouds: Clear
Visibility: 10 miles , 16 km
2020/09/27 02:52 KSGF 270252Z 17011KT 10SM CLR 21/16 A2983 RMK AO2 SLP091 T02110156 53011
KBBG - Branson, Missouri
Updated: Sat, Sep-Sat-2020 9:55pm
Clear
Clear
 Wind from SSE
Wind: SSE 3 mph , 6 km/h
Temperature: 64°F , 18°C
Dew Point: 61°F , 16°C
Humidity: 88%
Barometer: 29.88 inHg , 1011.9 hPa
Clouds: Clear
Visibility: 10 miles , 16 km
2020/09/27 02:55 KBBG 270255Z AUTO 15003KT 10SM CLR 18/16 A2988 RMK AO2
KUNO - West Plains, Missouri
Updated: Sat, Sep-Sat-2020 9:53pm
Clear
Clear
 Wind from S
Wind: S 6 mph , 9 km/h
Temperature: 66°F , 19°C
Dew Point: 61°F , 16°C
Humidity: 83%
Barometer: 29.90 inHg , 1012.5 hPa
Clouds: Clear
Visibility: 10 miles , 16 km
2020/09/27 02:53 KUNO 270253Z AUTO 18005KT 10SM CLR 19/16 A2990 RMK AO2 SLP117 T01890161 51006
 
KFAM - Farmington, Missouri
Updated: Sat, Sep-Sat-2020 9:56pm
Clear
Clear
 Wind from S
Wind: S 8 mph , 13 km/h
Temperature: 66°F , 19°C
Dew Point: 63°F , 17°C
Humidity: 88%
Barometer: 29.88 inHg , 1011.9 hPa
Clouds: Clear
Visibility: 10 miles , 16 km
2020/09/27 02:56 KFAM 270256Z AUTO 18007KT 10SM CLR 19/17 A2988 RMK AO2 SLP123 T01940172 51006
KCGI - Cape Girardeau, Missouri
Updated: Sat, Sep-Sat-2020 9:53pm
Mostly cloudy
Mostly cloudy
 Wind from S
Wind: S 7 mph , 11 km/h
Temperature: 66°F , 19°C
Dew Point: 61°F , 16°C
Humidity: 83%
Barometer: 29.90 inHg , 1012.5 hPa
Clouds: Mostly cloudy
Visibility: 10 miles , 16 km
Cloud details: Mostly cloudy 3000 ft
2020/09/27 02:53 KCGI 270253Z AUTO 18006KT 10SM BKN030 19/16 A2990 RMK AO2 SLP121 T01890156 51004
KSTL - St. Louis, Missouri
Updated: Sat, Sep-Sat-2020 9:51pm
Clear
Clear
 Wind from S
Wind: S 8 mph , 13 km/h
Temperature: 72°F , 22°C
Dew Point: 61°F , 16°C
Humidity: 69%
Barometer: 29.81 inHg , 1009.5 hPa
Clouds: Clear
Visibility: 10 miles , 16 km
2020/09/27 02:51 KSTL 270251Z 19007KT 10SM CLR 22/16 A2981 RMK AO2 SLP087 T02220161 52007 $
 
KPOF - Popular Bluff, Missouri
Updated: Sat, Sep-Sat-2020 9:53pm
Clear
Clear
 Wind from S
Wind: S 7 mph , 11 km/h
Temperature: 66°F , 19°C
Dew Point: 61°F , 16°C
Humidity: 83%
Barometer: 29.90 inHg , 1012.5 hPa
Clouds: Clear
Visibility: 10 miles , 16 km
2020/09/27 02:53 KPOF 270253Z AUTO 18006KT 10SM CLR 19/16 A2990 RMK AO2 SLP120 T01890161 53004
KSET - St. Charles, Missouri
Updated: Sat, Sep-Sat-2020 9:54pm
Clear
Clear
 Wind from SSE
Wind: SSE 6 mph , 9 km/h
Temperature: 70°F , 21°C
Dew Point: 61°F , 16°C
Humidity: 73%
Barometer: 29.80 inHg , 1009.1 hPa
Clouds: Clear
Visibility: 10 miles , 16 km
2020/09/27 02:54 KSET 270254Z AUTO 15005KT 10SM CLR 21/16 A2980 RMK AO2 SLP088 T02060156 51012 $
KGLD - Goodland, Kansas
Updated: Sat, Sep-Sat-2020 9:53pm
Clear
Clear
 Wind from N
Wind: N 13 mph , 20 km/h
Temperature: 70°F , 21°C
Dew Point: 34°F , 1°C
Humidity: 27%
Barometer: 29.81 inHg , 1009.5 hPa
Clouds: Clear
Visibility: 7 miles , 11 km
2020/09/27 02:53 KGLD 270253Z AUTO 01011KT 7SM CLR 21/01 A2981 RMK AO2 SLP051 T02060011 53017
 
KHLC - Hill City, Kansas
Updated: Sat, Sep-Sat-2020 9:53pm
Haze, Clear
Haze, Clear
 Wind from N
Wind: N 3 mph , 6 km/h
Temperature: 72°F , 22°C
Dew Point: 48°F , 9°C
Humidity: 44%
Barometer: 29.70 inHg , 1005.8 hPa
Summary: Haze
Clouds: Clear
Visibility: 6 miles , 10 km
2020/09/27 02:53 KHLC 270253Z AUTO 01003KT 6SM HZ CLR 22/09 A2970 RMK AO2 SLP039 T02170094 53011 $
KHYS - Hays Muni, Kansas
Updated: Sat, Sep-Sat-2020 9:56pm
Clear
Clear
 Wind from ENE
Wind: ENE 9 mph , 15 km/h
Temperature: 72°F , 22°C
Dew Point: 54°F , 12°C
Humidity: 53%
Barometer: 29.65 inHg , 1004.1 hPa
Clouds: Clear
Visibility: 10 miles , 16 km
2020/09/27 02:56 KHYS 270256Z AUTO 07008KT 10SM CLR 22/12 A2965 RMK AO2 SLP026 T02220117 51008
KRSL - Russell, Kansas
Updated: Sat, Sep-Sat-2020 9:53pm
Clear
Clear
 Wind from SSE
Wind: SSE 14 mph , 22 km/h
Temperature: 75°F , 24°C
Dew Point: 52°F , 11°C
Humidity: 44%
Barometer: 29.65 inHg , 1004.1 hPa
Clouds: Clear
Visibility: 10 miles , 16 km
2020/09/27 02:53 KRSL 270253Z AUTO 15012KT 10SM CLR 24/11 A2965 RMK AO2 SLP021 T02440111 51010
 
KGBD - Great Bend, Kansas
Updated: Sat, Sep-Sat-2020 9:56pm
Clear
Clear
 Wind from S
Wind: S 10 mph , 17 km/h
Temperature: 79°F , 26°C
Dew Point: 57°F , 14°C
Humidity: 48%
Barometer: 29.66 inHg , 1004.4 hPa
Clouds: Clear
Visibility: 10 miles , 16 km
2020/09/27 02:56 KGBD 270256Z AUTO 17009KT 10SM CLR 26/14 A2966 RMK AO2 SLP024 T02560139 51013
KDDC - Dodge City, Kansas
Updated: Sat, Sep-Sat-2020 9:52pm
Clear
Clear
 Wind from S
Wind: S 10 mph , 17 km/h
Temperature: 77°F , 25°C
Dew Point: 52°F , 11°C
Humidity: 42%
Barometer: 29.69 inHg , 1005.4 hPa
Clouds: Clear
Visibility: 8 miles , 13 km
2020/09/27 02:52 KDDC 270252Z AUTO 17009KT 8SM CLR 25/11 A2969 RMK AO2 SLP019 T02500111 53009
KPTT - Pratt Indust, Kansas
Updated: Sat, Sep-Sat-2020 9:55pm
Clear
Clear
 Wind from S
Wind: S 16 mph , 26 km/h
Temperature: 79°F , 26°C
Dew Point: 55°F , 13°C
Humidity: 45%
Barometer: 29.69 inHg , 1005.4 hPa
Clouds: Clear
Visibility: 10 miles , 16 km
2020/09/27 02:55 KPTT 270255Z AUTO 17014KT 10SM CLR 26/13 A2969 RMK AO2 T02620134
 
KSLN - Salina, Kansas
Updated: Sat, Sep-Sat-2020 9:53pm
Clear
Clear
 Wind from SSE
Wind: SSE 14 mph , 22 km/h
Temperature: 79°F , 26°C
Dew Point: 61°F , 16°C
Humidity: 54%
Barometer: 29.67 inHg , 1004.7 hPa
Clouds: Clear
Visibility: 10 miles , 16 km
2020/09/27 02:53 KSLN 270253Z 16012KT 10SM CLR 26/16 A2967 RMK AO2 SLP031 T02560161 51011
KHUT - Hutchinson, Kansas
Updated: Sat, Sep-Sat-2020 9:52pm
Clear
Clear
 Wind from SSE
Wind: SSE 13 mph , 20 km/h
Temperature: 79°F , 26°C
Dew Point: 61°F , 16°C
Humidity: 54%
Barometer: 29.69 inHg , 1005.4 hPa
Clouds: Clear
Visibility: 10 miles , 16 km
2020/09/27 02:52 KHUT 270252Z 15011KT 10SM CLR 26/16 A2969 RMK AO2 SLP029 T02560156 53011
KGCK - Garden City, Kansas
Updated: Sat, Sep-Sat-2020 9:54pm
Clear
Clear
 Wind from ENE
Wind: ENE 10 mph , 17 km/h
Temperature: 72°F , 22°C
Dew Point: 48°F , 9°C
Humidity: 44%
Barometer: 29.68 inHg , 1005.1 hPa
Clouds: Clear
Visibility: 10 miles , 16 km
2020/09/27 02:54 KGCK 270254Z AUTO 07009KT 10SM CLR 22/09 A2968 RMK AO2 SLP021 T02220089 50003
 
KP28 - Medicine Lodge, Kansas
Updated: Sat, Sep-Sat-2020 9:56pm

 Wind from SSE
Wind: SSE 9 mph , 15 km/h, Gust: 17 mph , 28 km/h
Temperature: 79°F , 26°C
Dew Point: 61°F , 16°C
Humidity: 54%
Barometer: 29.68 inHg , 1005.1 hPa
2020/09/27 02:56 KP28 270256Z AUTO 15008G15KT 26/16 A2968 RMK AO1 SLP034 T02560161 51013
KICT - Wichita, Kansas
Updated: Sat, Sep-Sat-2020 9:53pm
Mostly cloudy
Mostly cloudy
 Wind from S
Wind: S 16 mph , 26 km/h, Gust: 24 mph , 39 km/h
Temperature: 75°F , 24°C
Dew Point: 63°F , 17°C
Humidity: 65%
Barometer: 29.70 inHg , 1005.8 hPa
Clouds: Mostly cloudy
Visibility: 10 miles , 16 km
Cloud details: Mostly cloudy 25000 ft
2020/09/27 02:53 KICT 270253Z 17014G21KT 10SM BKN250 24/17 A2970 RMK AO2 SLP044 T02440167 51008
KRSL - Russell, Kansas
Updated: Sat, Sep-Sat-2020 9:53pm
Clear
Clear
 Wind from SSE
Wind: SSE 14 mph , 22 km/h
Temperature: 75°F , 24°C
Dew Point: 52°F , 11°C
Humidity: 44%
Barometer: 29.65 inHg , 1004.1 hPa
Clouds: Clear
Visibility: 10 miles , 16 km
2020/09/27 02:53 KRSL 270253Z AUTO 15012KT 10SM CLR 24/11 A2965 RMK AO2 SLP021 T02440111 51010
 
KMHK - Manhattan, Kansas
Updated: Sat, Sep-Sat-2020 9:52pm
Clear
Clear
 Wind from SSW
Wind: SSW 8 mph , 13 km/h
Temperature: 81°F , 27°C
Heat Index: 82°F , 28°C
Dew Point: 63°F , 17°C
Humidity: 54%
Barometer: 29.69 inHg , 1005.4 hPa
Clouds: Clear
Visibility: 10 miles , 16 km
2020/09/27 02:52 KMHK 270252Z 20007KT 10SM CLR 27/17 A2969 RMK AO2 SLP042 T02670167 53019
KEMP - Emporia, Kansas
Updated: Sat, Sep-Sat-2020 9:53pm
Clear
Clear
 Wind from S
Wind: S 15 mph , 24 km/h, Gust: 22 mph , 35 km/h
Temperature: 75°F , 24°C
Dew Point: 64°F , 18°C
Humidity: 69%
Barometer: 29.73 inHg , 1006.8 hPa
Clouds: Clear
Visibility: 10 miles , 16 km
2020/09/27 02:53 KEMP 270253Z AUTO 18013G19KT 10SM CLR 24/18 A2973 RMK AO2 SLP059 T02390183 51009
KTOP - Topeka, Kansas
Updated: Sat, Sep-Sat-2020 9:53pm
Clear
Clear
 Wind from S
Wind: S 6 mph , 9 km/h
Temperature: 79°F , 26°C
Dew Point: 64°F , 18°C
Humidity: 61%
Barometer: 29.71 inHg , 1006.1 hPa
Clouds: Clear
Visibility: 10 miles , 16 km
2020/09/27 02:53 KTOP 270253Z AUTO 17005KT 10SM CLR 26/18 A2971 RMK AO2 SLP052 T02610178 53015
 
KCNU - Chanute, Kansas
Updated: Sat, Sep-Sat-2020 9:52pm
Clear
Clear
 Wind from S
Wind: S 10 mph , 17 km/h
Temperature: 72°F , 22°C
Dew Point: 64°F , 18°C
Humidity: 78%
Barometer: 29.77 inHg , 1008.1 hPa
Clouds: Clear
Visibility: 10 miles , 16 km
2020/09/27 02:52 KCNU 270252Z AUTO 18009KT 10SM CLR 22/18 A2977 RMK AO2 SLP070 T02220183 53012
KLWC - Lawrence, Kansas
Updated: Sat, Sep-Sat-2020 9:52pm
Clear
Clear
 Wind from SSW
Wind: SSW 7 mph , 11 km/h
Temperature: 79°F , 26°C
Dew Point: 66°F , 19°C
Humidity: 65%
Barometer: 29.72 inHg , 1006.4 hPa
Clouds: Clear
Visibility: 10 miles , 16 km
2020/09/27 02:52 KLWC 270252Z AUTO 21006KT 10SM CLR 26/19 A2972 RMK AO1 SLP055 T02560189 53013
KPPF - Parsons, Kansas
Updated: Sat, Sep-Sat-2020 9:52pm

 
Barometer: 29.79 inHg , 1008.8 hPa
2020/09/27 02:52 KPPF 270252Z AUTO A2979 RMK AO2 SLPNO 53013 PWINO FZRANO $
 
KIDP - Independence, Kansas
Updated: Sat, Sep-Sat-2020 9:55pm
Clear
Clear
 Wind from S
Wind: S 14 mph , 22 km/h, Gust: 18 mph , 30 km/h
Temperature: 73°F , 23°C
Dew Point: 66°F , 19°C
Humidity: 78%
Barometer: 29.77 inHg , 1008.1 hPa
Clouds: Clear
Visibility: 10 miles , 16 km
2020/09/27 02:55 KIDP 270255Z AUTO 17012G16KT 10SM CLR 23/19 A2977 RMK AO2 T02250192
KOJC - Olathe, Kansas
Updated: Sat, Sep-Sat-2020 9:53pm
Clear
Clear
 Wind from S
Wind: S 10 mph , 17 km/h
Temperature: 75°F , 24°C
Dew Point: 66°F , 19°C
Humidity: 74%
Barometer: 29.73 inHg , 1006.8 hPa
Clouds: Clear
Visibility: 10 miles , 16 km
2020/09/27 02:53 KOJC 270253Z AUTO 19009KT 10SM CLR 24/19 A2973 RMK AO2 SLP057 T02390189 50007
KCFV - Coffeyville, Kansas
Updated: Sat, Sep-Sat-2020 9:52pm
Clear
Clear
 Wind from S
Wind: S 9 mph , 15 km/h
Temperature: 72°F , 22°C
Dew Point: 64°F , 18°C
Humidity: 78%
Barometer: 29.77 inHg , 1008.1 hPa
Clouds: Clear
Visibility: 10 miles , 16 km
2020/09/27 02:52 KCFV 270252Z AUTO 17008KT 10SM CLR 22/18 A2977 RMK AO2 SLP074 T02220183 53014
 
KPTS - Pittsburg, Kansas
Updated: Sat, Sep-Sat-2020 9:55pm
Clear
Clear
 Wind from S
Wind: S 10 mph , 17 km/h, Gust: 16 mph , 26 km/h
Temperature: 72°F , 22°C
Dew Point: 66°F , 19°C
Humidity: 83%
Barometer: 29.78 inHg , 1008.5 hPa
Clouds: Clear
Visibility: 10 miles , 16 km
2020/09/27 02:55 KPTS 270255Z AUTO 18009G14KT 10SM CLR 22/19 A2978 RMK AO2 T02150186
KLGA - New York City, New York
Updated: Sat, Sep-Sat-2020 9:51pm
Mostly cloudy
Mostly cloudy
 Wind from E
Wind: E 3 mph , 6 km/h
Temperature: 72°F , 22°C
Dew Point: 64°F , 18°C
Humidity: 78%
Barometer: 30.04 inHg , 1017.3 hPa
Clouds: Mostly cloudy
Visibility: 10 miles , 16 km
Cloud details: Mostly cloudy 900 ft
2020/09/27 02:51 KLGA 270251Z 08003KT 10SM BKN009 22/18 A3004 RMK AO2 SLP171 T02170183 51001
KCLT - Charlotte, North Carolina
Updated: Sat, Sep-Sat-2020 9:59pm
Partly cloudy
Partly cloudy
 Wind from calm
Wind: Calm
Temperature: 64°F , 18°C
Dew Point: 64°F , 18°C
Humidity: 100%
Barometer: 30.04 inHg , 1017.3 hPa
Clouds: Partly cloudy
Visibility: 10 miles , 16 km
Cloud details: Few Clouds 700 ft
Partly cloudy 3500 ft
Partly cloudy 25000 ft
2020/09/27 02:59 KCLT 270259Z 00000KT 10SM FEW007 SCT035 SCT250 18/18 A3004 RMK AO2 T01830178
 
KATL - Atlanta, Georgia
Updated: Sat, Sep-Sat-2020 9:52pm
Mostly cloudy
Mostly cloudy
 Wind from calm
Wind: Calm
Temperature: 72°F , 22°C
Dew Point: 64°F , 18°C
Humidity: 78%
Barometer: 30.01 inHg , 1016.3 hPa
Clouds: Mostly cloudy
Visibility: 10 miles , 16 km
Cloud details: Few Clouds 5000 ft
Mostly cloudy 25000 ft
2020/09/27 02:52 KATL 270252Z 00000KT 10SM FEW050 BKN250 22/18 A3001 RMK AO2 SLP156 T02170183 50006 $
KORL - Orlando, Florida
Updated: Sat, Sep-Sat-2020 9:53pm
Mostly cloudy
Mostly cloudy
 Wind from SE
Wind: SE 7 mph , 11 km/h
Temperature: 82°F , 28°C
Heat Index: 91°F , 33°C
Dew Point: 79°F , 26°C
Humidity: 89%
Barometer: 30.01 inHg , 1016.3 hPa
Clouds: Mostly cloudy
Visibility: 10 miles , 16 km
Cloud details: Few Clouds 4600 ft
Mostly cloudy 6000 ft
2020/09/27 02:53 KORL 270253Z AUTO 14006KT 10SM FEW046 BKN060 28/26 A3001 RMK AO2 SLP163 60001 T02830261 51014
KMSP - Minneapolis, Minnesota
Updated: Sat, Sep-Sat-2020 9:53pm
Overcast
Overcast
 Wind from NNE
Wind: NNE 9 mph , 15 km/h
Temperature: 61°F , 16°C
Dew Point: 57°F , 14°C
Humidity: 88%
Barometer: 29.55 inHg , 1000.7 hPa
Clouds: Overcast
Visibility: 10 miles , 16 km
Cloud details: Few Clouds 700 ft
Partly cloudy 1200 ft
Overcast 2600 ft
2020/09/27 02:53 KMSP 270253Z 02008KT 10SM FEW007 SCT012 OVC026 16/14 A2955 RMK AO2 WSHFT 0150 RAE38 SLP006 P0000 60001 T01610144 51022 $
 
KORD - Chicago, Illinois
Updated: Sat, Sep-Sat-2020 9:51pm
Partly cloudy
Partly cloudy
 Wind from SSW
Wind: SSW 20 mph , 31 km/h, Gust: 32 mph , 52 km/h
Temperature: 75°F , 24°C
Dew Point: 57°F , 14°C
Humidity: 54%
Barometer: 29.67 inHg , 1004.7 hPa
Clouds: Partly cloudy
Visibility: 10 miles , 16 km
Cloud details: Partly cloudy 25000 ft
2020/09/27 02:51 KORD 270251Z 20017G28KT 10SM SCT250 24/14 A2967 RMK AO2 PK WND 21030/0235 SLP043 T02440139 53007
KDFW - Dallas/Ft Worth, Texas
Updated: Sat, Sep-Sat-2020 9:53pm
Clear
Clear
 Wind from SSE
Wind: SSE 12 mph , 19 km/h, Gust: 20 mph , 31 km/h
Temperature: 77°F , 25°C
Dew Point: 64°F , 18°C
Humidity: 65%
Barometer: 29.79 inHg , 1008.8 hPa
Clouds: Clear
Visibility: 10 miles , 16 km
2020/09/27 02:53 KDFW 270253Z 15010G17KT 10SM CLR 25/18 A2979 RMK AO2 SLP081 T02500183 53002
KHOU - Houston, Texas
Updated: Sat, Sep-Sat-2020 9:53pm
Few Clouds
Few Clouds
 Wind from SSE
Wind: SSE 9 mph , 15 km/h
Temperature: 79°F , 26°C
Dew Point: 70°F , 21°C
Humidity: 74%
Barometer: 29.86 inHg , 1011.2 hPa
Clouds: Few Clouds
Visibility: 10 miles , 16 km
Cloud details: Few Clouds 4500 ft
2020/09/27 02:53 KHOU 270253Z 16008KT 10SM FEW045 26/21 A2986 RMK AO2 SLP118 T02560211 53005
 
KDEN - Denver, Colorado
Updated: Sat, Sep-Sat-2020 9:53pm
Mostly cloudy
Mostly cloudy
 Wind from ENE
Wind: ENE 14 mph , 22 km/h
Temperature: 63°F , 17°C
Dew Point: 37°F , 3°C
Humidity: 39%
Barometer: 29.99 inHg , 1015.6 hPa
Clouds: Mostly cloudy
Visibility: 10 miles , 16 km
Cloud details: Mostly cloudy 3500 ft
Mostly cloudy 15000 ft
Mostly cloudy 22000 ft
2020/09/27 02:53 KDEN 270253Z 06012KT 10SM BKN035 BKN150 BKN220 17/03 A2999 RMK AO2 PK WND 07027/0159 SLP085 T01720033 53041
KSFO - San Francisco, California
Updated: Sat, Sep-Sat-2020 9:56pm
Mostly cloudy
Mostly cloudy
 Wind from WNW
Wind: WNW 20 mph , 31 km/h
Temperature: 66°F , 19°C
Dew Point: 55°F , 13°C
Humidity: 68%
Barometer: 29.93 inHg , 1013.5 hPa
Clouds: Mostly cloudy
Visibility: 10 miles , 16 km
Cloud details: Mostly cloudy 20000 ft
2020/09/27 02:56 KSFO 270256Z 29017KT 10SM BKN200 19/13 A2993 RMK AO2 SLP136 T01940128 55009
KLAX - Los Angeles, California
Updated: Sat, Sep-Sat-2020 9:53pm
Partly cloudy
Partly cloudy
 Wind from WSW
Wind: WSW 7 mph , 11 km/h
Temperature: 68°F , 20°C
Dew Point: 63°F , 17°C
Humidity: 83%
Barometer: 29.86 inHg , 1011.2 hPa
Clouds: Partly cloudy
Visibility: 10 miles , 16 km
Cloud details: Few Clouds 1000 ft
Partly cloudy 20000 ft
Partly cloudy 27000 ft
2020/09/27 02:53 KLAX 270253Z 24006KT 10SM FEW010 SCT200 SCT270 20/17 A2986 RMK AO2 SLP109 FU SCT200 T02000172 55002